sensor_id;sensor_type;location;lat;lon;timestamp;P1;durP1;ratioP1;P2;durP2;ratioP2
20042;SDS011;10182;52.896;6.496;2023-03-14T00:03:32;20.50;;;5.60;;
20042;SDS011;10182;52.896;6.496;2023-03-14T00:08:34;24.10;;;5.90;;
20042;SDS011;10182;52.896;6.496;2023-03-14T00:13:40;18.63;;;5.43;;
20042;SDS011;10182;52.896;6.496;2023-03-14T00:18:43;22.20;;;4.50;;
20042;SDS011;10182;52.896;6.496;2023-03-14T00:23:47;22.47;;;5.70;;
20042;SDS011;10182;52.896;6.496;2023-03-14T00:28:52;26.13;;;5.33;;
20042;SDS011;10182;52.896;6.496;2023-03-14T00:33:55;18.03;;;4.67;;
20042;SDS011;10182;52.896;6.496;2023-03-14T00:38:57;27.23;;;6.57;;
20042;SDS011;10182;52.896;6.496;2023-03-14T00:44:04;22.60;;;4.97;;
20042;SDS011;10182;52.896;6.496;2023-03-14T00:49:06;20.53;;;6.23;;
20042;SDS011;10182;52.896;6.496;2023-03-14T00:54:09;19.97;;;4.83;;
20042;SDS011;10182;52.896;6.496;2023-03-14T00:59:12;20.83;;;5.50;;
20042;SDS011;10182;52.896;6.496;2023-03-14T01:04:17;24.13;;;5.20;;
20042;SDS011;10182;52.896;6.496;2023-03-14T01:09:19;23.00;;;4.77;;
20042;SDS011;10182;52.896;6.496;2023-03-14T01:14:22;15.87;;;4.87;;
20042;SDS011;10182;52.896;6.496;2023-03-14T01:19:24;15.83;;;5.40;;
20042;SDS011;10182;52.896;6.496;2023-03-14T01:24:26;21.97;;;5.23;;
20042;SDS011;10182;52.896;6.496;2023-03-14T01:29:30;19.87;;;5.87;;
20042;SDS011;10182;52.896;6.496;2023-03-14T01:34:32;17.73;;;5.67;;
20042;SDS011;10182;52.896;6.496;2023-03-14T01:39:34;15.33;;;4.53;;
20042;SDS011;10182;52.896;6.496;2023-03-14T01:44:48;20.77;;;5.50;;
20042;SDS011;10182;52.896;6.496;2023-03-14T01:49:53;16.37;;;5.00;;
20042;SDS011;10182;52.896;6.496;2023-03-14T01:54:58;15.00;;;4.80;;
20042;SDS011;10182;52.896;6.496;2023-03-14T02:00:09;12.00;;;3.83;;
20042;SDS011;10182;52.896;6.496;2023-03-14T02:05:14;20.23;;;4.23;;
20042;SDS011;10182;52.896;6.496;2023-03-14T02:10:19;12.90;;;4.03;;
20042;SDS011;10182;52.896;6.496;2023-03-14T02:15:25;16.20;;;4.17;;
20042;SDS011;10182;52.896;6.496;2023-03-14T02:20:28;11.47;;;3.73;;
20042;SDS011;10182;52.896;6.496;2023-03-14T02:25:38;12.83;;;4.40;;
20042;SDS011;10182;52.896;6.496;2023-03-14T02:30:47;16.00;;;5.23;;
20042;SDS011;10182;52.896;6.496;2023-03-14T02:35:50;15.03;;;5.20;;
20042;SDS011;10182;52.896;6.496;2023-03-14T02:40:57;16.00;;;4.53;;
20042;SDS011;10182;52.896;6.496;2023-03-14T02:46:04;18.03;;;5.67;;
20042;SDS011;10182;52.896;6.496;2023-03-14T02:51:09;19.13;;;5.57;;
20042;SDS011;10182;52.896;6.496;2023-03-14T02:56:18;14.43;;;5.23;;
20042;SDS011;10182;52.896;6.496;2023-03-14T03:01:21;15.47;;;5.30;;
20042;SDS011;10182;52.896;6.496;2023-03-14T03:06:23;19.00;;;5.27;;
20042;SDS011;10182;52.896;6.496;2023-03-14T03:11:25;13.83;;;4.73;;
20042;SDS011;10182;52.896;6.496;2023-03-14T03:16:28;10.30;;;4.87;;
20042;SDS011;10182;52.896;6.496;2023-03-14T03:21:30;10.60;;;4.50;;
20042;SDS011;10182;52.896;6.496;2023-03-14T03:26:33;13.63;;;5.07;;
20042;SDS011;10182;52.896;6.496;2023-03-14T03:31:37;11.53;;;4.73;;
20042;SDS011;10182;52.896;6.496;2023-03-14T03:36:42;11.30;;;5.10;;
20042;SDS011;10182;52.896;6.496;2023-03-14T03:41:44;11.53;;;5.27;;
20042;SDS011;10182;52.896;6.496;2023-03-14T03:46:48;14.00;;;5.97;;
20042;SDS011;10182;52.896;6.496;2023-03-14T03:51:51;15.27;;;5.80;;
20042;SDS011;10182;52.896;6.496;2023-03-14T03:56:53;12.83;;;6.03;;
20042;SDS011;10182;52.896;6.496;2023-03-14T04:01:56;15.63;;;6.10;;
20042;SDS011;10182;52.896;6.496;2023-03-14T04:06:58;13.00;;;6.20;;
20042;SDS011;10182;52.896;6.496;2023-03-14T04:12:03;18.30;;;6.10;;
20042;SDS011;10182;52.896;6.496;2023-03-14T04:17:07;13.27;;;5.20;;
20042;SDS011;10182;52.896;6.496;2023-03-14T04:22:10;12.60;;;5.60;;
20042;SDS011;10182;52.896;6.496;2023-03-14T04:27:12;10.83;;;4.63;;
20042;SDS011;10182;52.896;6.496;2023-03-14T04:32:20;16.63;;;5.43;;
20042;SDS011;10182;52.896;6.496;2023-03-14T04:37:24;10.70;;;4.97;;
20042;SDS011;10182;52.896;6.496;2023-03-14T04:42:25;13.33;;;5.70;;
20042;SDS011;10182;52.896;6.496;2023-03-14T04:47:28;11.93;;;4.93;;
20042;SDS011;10182;52.896;6.496;2023-03-14T04:52:30;15.53;;;6.20;;
20042;SDS011;10182;52.896;6.496;2023-03-14T04:57:32;13.77;;;6.37;;
20042;SDS011;10182;52.896;6.496;2023-03-14T05:02:36;15.17;;;6.13;;
20042;SDS011;10182;52.896;6.496;2023-03-14T05:07:37;13.33;;;5.77;;
20042;SDS011;10182;52.896;6.496;2023-03-14T05:12:39;14.00;;;5.87;;
20042;SDS011;10182;52.896;6.496;2023-03-14T05:17:43;15.17;;;6.17;;
20042;SDS011;10182;52.896;6.496;2023-03-14T05:22:47;12.17;;;5.77;;
20042;SDS011;10182;52.896;6.496;2023-03-14T05:27:48;14.37;;;6.07;;
20042;SDS011;10182;52.896;6.496;2023-03-14T05:32:52;13.23;;;6.57;;
20042;SDS011;10182;52.896;6.496;2023-03-14T05:37:54;11.10;;;6.67;;
20042;SDS011;10182;52.896;6.496;2023-03-14T05:42:56;17.67;;;7.77;;
20042;SDS011;10182;52.896;6.496;2023-03-14T05:48:00;18.13;;;7.90;;
20042;SDS011;10182;52.896;6.496;2023-03-14T05:53:05;12.50;;;7.37;;
20042;SDS011;10182;52.896;6.496;2023-03-14T05:58:07;15.87;;;8.03;;
20042;SDS011;10182;52.896;6.496;2023-03-14T06:03:11;21.43;;;8.37;;
20042;SDS011;10182;52.896;6.496;2023-03-14T06:08:13;11.67;;;6.97;;
20042;SDS011;10182;52.896;6.496;2023-03-14T06:13:18;11.00;;;6.10;;
20042;SDS011;10182;52.896;6.496;2023-03-14T06:18:21;9.33;;;5.40;;
20042;SDS011;10182;52.896;6.496;2023-03-14T06:23:23;13.97;;;5.50;;
20042;SDS011;10182;52.896;6.496;2023-03-14T06:28:28;9.37;;;5.20;;
20042;SDS011;10182;52.896;6.496;2023-03-14T06:33:40;9.50;;;4.93;;
20042;SDS011;10182;52.896;6.496;2023-03-14T06:38:43;9.47;;;4.50;;
20042;SDS011;10182;52.896;6.496;2023-03-14T06:43:49;13.87;;;6.47;;
20042;SDS011;10182;52.896;6.496;2023-03-14T06:48:52;10.90;;;6.43;;
20042;SDS011;10182;52.896;6.496;2023-03-14T06:53:55;13.53;;;6.60;;
20042;SDS011;10182;52.896;6.496;2023-03-14T06:58:57;13.77;;;5.90;;
20042;SDS011;10182;52.896;6.496;2023-03-14T07:04:03;7.33;;;4.07;;
20042;SDS011;10182;52.896;6.496;2023-03-14T07:09:05;6.93;;;3.27;;
20042;SDS011;10182;52.896;6.496;2023-03-14T07:14:07;4.80;;;3.53;;
20042;SDS011;10182;52.896;6.496;2023-03-14T07:19:10;3.30;;;0.87;;
20042;SDS011;10182;52.896;6.496;2023-03-14T07:24:14;5.33;;;1.37;;
20042;SDS011;10182;52.896;6.496;2023-03-14T07:29:19;4.60;;;1.50;;
20042;SDS011;10182;52.896;6.496;2023-03-14T07:34:24;5.93;;;1.03;;
20042;SDS011;10182;52.896;6.496;2023-03-14T07:39:27;5.20;;;1.00;;
20042;SDS011;10182;52.896;6.496;2023-03-14T07:44:29;5.00;;;0.97;;
20042;SDS011;10182;52.896;6.496;2023-03-14T07:49:33;5.30;;;0.97;;
20042;SDS011;10182;52.896;6.496;2023-03-14T07:54:35;5.83;;;1.00;;
20042;SDS011;10182;52.896;6.496;2023-03-14T07:59:37;2.33;;;0.77;;
20042;SDS011;10182;52.896;6.496;2023-03-14T08:04:40;1.90;;;0.67;;
20042;SDS011;10182;52.896;6.496;2023-03-14T08:09:42;3.33;;;0.93;;
20042;SDS011;10182;52.896;6.496;2023-03-14T08:14:44;2.87;;;0.77;;
20042;SDS011;10182;52.896;6.496;2023-03-14T08:19:50;1.30;;;0.70;;
20042;SDS011;10182;52.896;6.496;2023-03-14T08:24:52;3.47;;;0.90;;
20042;SDS011;10182;52.896;6.496;2023-03-14T08:29:54;6.70;;;1.47;;
20042;SDS011;10182;52.896;6.496;2023-03-14T08:34:57;3.80;;;0.70;;
20042;SDS011;10182;52.896;6.496;2023-03-14T08:39:59;5.33;;;1.13;;
20042;SDS011;10182;52.896;6.496;2023-03-14T08:45:01;4.53;;;1.27;;
20042;SDS011;10182;52.896;6.496;2023-03-14T08:50:06;5.00;;;0.83;;
20042;SDS011;10182;52.896;6.496;2023-03-14T08:55:09;5.80;;;1.20;;
20042;SDS011;10182;52.896;6.496;2023-03-14T09:00:12;6.30;;;0.93;;
20042;SDS011;10182;52.896;6.496;2023-03-14T09:05:18;5.97;;;1.37;;
20042;SDS011;10182;52.896;6.496;2023-03-14T09:10:20;7.67;;;1.50;;
20042;SDS011;10182;52.896;6.496;2023-03-14T09:15:22;15.37;;;1.70;;
20042;SDS011;10182;52.896;6.496;2023-03-14T09:20:26;14.60;;;2.93;;
20042;SDS011;10182;52.896;6.496;2023-03-14T09:25:30;8.83;;;2.10;;
20042;SDS011;10182;52.896;6.496;2023-03-14T09:30:41;9.60;;;2.20;;
20042;SDS011;10182;52.896;6.496;2023-03-14T09:35:49;13.03;;;2.57;;
20042;SDS011;10182;52.896;6.496;2023-03-14T09:40:51;12.47;;;2.53;;
20042;SDS011;10182;52.896;6.496;2023-03-14T09:45:54;14.87;;;3.37;;
20042;SDS011;10182;52.896;6.496;2023-03-14T09:51:01;13.70;;;3.17;;
20042;SDS011;10182;52.896;6.496;2023-03-14T09:56:09;16.93;;;3.30;;
20042;SDS011;10182;52.896;6.496;2023-03-14T10:01:15;15.47;;;2.90;;
20042;SDS011;10182;52.896;6.496;2023-03-14T10:06:25;10.67;;;3.23;;
20042;SDS011;10182;52.896;6.496;2023-03-14T10:11:32;14.63;;;3.60;;
20042;SDS011;10182;52.896;6.496;2023-03-14T10:16:35;16.37;;;3.53;;
20042;SDS011;10182;52.896;6.496;2023-03-14T10:21:40;15.53;;;3.70;;
20042;SDS011;10182;52.896;6.496;2023-03-14T10:26:43;14.20;;;3.60;;
20042;SDS011;10182;52.896;6.496;2023-03-14T10:31:51;21.10;;;3.80;;
20042;SDS011;10182;52.896;6.496;2023-03-14T10:36:56;14.10;;;4.00;;
20042;SDS011;10182;52.896;6.496;2023-03-14T10:42:04;18.63;;;4.03;;
20042;SDS011;10182;52.896;6.496;2023-03-14T10:47:15;16.87;;;3.03;;
20042;SDS011;10182;52.896;6.496;2023-03-14T10:52:23;11.57;;;2.93;;
20042;SDS011;10182;52.896;6.496;2023-03-14T10:57:27;15.30;;;3.07;;
20042;SDS011;10182;52.896;6.496;2023-03-14T11:02:36;17.13;;;3.90;;
20042;SDS011;10182;52.896;6.496;2023-03-14T11:07:52;12.07;;;3.57;;
20042;SDS011;10182;52.896;6.496;2023-03-14T11:13:00;10.63;;;2.90;;
20042;SDS011;10182;52.896;6.496;2023-03-14T11:18:18;11.47;;;2.83;;
20042;SDS011;10182;52.896;6.496;2023-03-14T11:23:49;8.63;;;2.37;;
20042;SDS011;10182;52.896;6.496;2023-03-14T11:29:03;9.27;;;1.73;;
20042;SDS011;10182;52.896;6.496;2023-03-14T11:34:23;7.47;;;1.70;;
20042;SDS011;10182;52.896;6.496;2023-03-14T11:39:40;7.63;;;1.97;;
20042;SDS011;10182;52.896;6.496;2023-03-14T11:44:46;10.93;;;2.57;;
20042;SDS011;10182;52.896;6.496;2023-03-14T11:49:50;10.30;;;2.20;;
20042;SDS011;10182;52.896;6.496;2023-03-14T11:55:02;6.90;;;2.13;;
20042;SDS011;10182;52.896;6.496;2023-03-14T12:00:13;7.53;;;1.57;;
20042;SDS011;10182;52.896;6.496;2023-03-14T12:10:51;6.07;;;1.70;;
20042;SDS011;10182;52.896;6.496;2023-03-14T12:15:56;6.30;;;1.83;;
20042;SDS011;10182;52.896;6.496;2023-03-14T12:21:06;2.80;;;1.17;;
20042;SDS011;10182;52.896;6.496;2023-03-14T12:26:15;5.90;;;1.30;;
20042;SDS011;10182;52.896;6.496;2023-03-14T12:36:51;7.63;;;1.60;;
20042;SDS011;10182;52.896;6.496;2023-03-14T12:42:05;5.40;;;1.67;;
20042;SDS011;10182;52.896;6.496;2023-03-14T12:52:55;8.00;;;1.63;;
20042;SDS011;10182;52.896;6.496;2023-03-14T12:58:22;5.77;;;1.47;;
20042;SDS011;10182;52.896;6.496;2023-03-14T13:03:39;4.70;;;1.80;;
20042;SDS011;10182;52.896;6.496;2023-03-14T13:08:45;8.37;;;1.80;;
20042;SDS011;10182;52.896;6.496;2023-03-14T13:13:56;3.15;;;1.40;;
20042;SDS011;10182;52.896;6.496;2023-03-14T13:19:09;5.73;;;1.70;;
20042;SDS011;10182;52.896;6.496;2023-03-14T13:24:20;7.33;;;1.87;;
20042;SDS011;10182;52.896;6.496;2023-03-14T13:29:25;14.37;;;2.67;;
20042;SDS011;10182;52.896;6.496;2023-03-14T13:34:31;6.30;;;1.70;;
20042;SDS011;10182;52.896;6.496;2023-03-14T13:39:34;4.27;;;1.07;;
20042;SDS011;10182;52.896;6.496;2023-03-14T13:44:45;4.00;;;1.53;;
20042;SDS011;10182;52.896;6.496;2023-03-14T13:49:52;8.53;;;2.60;;
20042;SDS011;10182;52.896;6.496;2023-03-14T13:54:57;6.27;;;2.40;;
20042;SDS011;10182;52.896;6.496;2023-03-14T14:00:04;6.63;;;1.83;;
20042;SDS011;10182;52.896;6.496;2023-03-14T14:05:10;8.03;;;1.57;;
20042;SDS011;10182;52.896;6.496;2023-03-14T14:10:13;9.63;;;1.70;;
20042;SDS011;10182;52.896;6.496;2023-03-14T14:15:17;6.57;;;1.70;;
20042;SDS011;10182;52.896;6.496;2023-03-14T14:20:23;5.63;;;1.70;;
20042;SDS011;10182;52.896;6.496;2023-03-14T14:25:32;4.00;;;1.53;;
20042;SDS011;10182;52.896;6.496;2023-03-14T14:30:36;6.27;;;1.70;;
20042;SDS011;10182;52.896;6.496;2023-03-14T14:35:38;6.57;;;1.60;;
20042;SDS011;10182;52.896;6.496;2023-03-14T14:40:43;6.33;;;1.37;;
20042;SDS011;10182;52.896;6.496;2023-03-14T14:45:49;8.90;;;2.03;;
20042;SDS011;10182;52.896;6.496;2023-03-14T14:50:58;12.03;;;2.27;;
20042;SDS011;10182;52.896;6.496;2023-03-14T14:56:03;3.93;;;1.50;;
20042;SDS011;10182;52.896;6.496;2023-03-14T15:01:11;10.10;;;1.80;;
20042;SDS011;10182;52.896;6.496;2023-03-14T15:06:16;4.97;;;1.87;;
20042;SDS011;10182;52.896;6.496;2023-03-14T15:11:22;3.33;;;1.47;;
20042;SDS011;10182;52.896;6.496;2023-03-14T15:16:28;7.20;;;1.90;;
20042;SDS011;10182;52.896;6.496;2023-03-14T15:21:32;4.03;;;1.47;;
20042;SDS011;10182;52.896;6.496;2023-03-14T15:26:36;8.97;;;1.43;;
20042;SDS011;10182;52.896;6.496;2023-03-14T15:31:40;3.77;;;1.47;;
20042;SDS011;10182;52.896;6.496;2023-03-14T15:36:43;7.53;;;1.73;;
20042;SDS011;10182;52.896;6.496;2023-03-14T15:41:45;3.07;;;1.70;;
20042;SDS011;10182;52.896;6.496;2023-03-14T15:46:48;5.87;;;1.63;;
20042;SDS011;10182;52.896;6.496;2023-03-14T15:51:51;6.23;;;2.00;;
20042;SDS011;10182;52.896;6.496;2023-03-14T15:56:56;7.33;;;2.00;;
20042;SDS011;10182;52.896;6.496;2023-03-14T16:02:00;9.90;;;1.90;;
20042;SDS011;10182;52.896;6.496;2023-03-14T16:07:04;7.77;;;1.60;;
20042;SDS011;10182;52.896;6.496;2023-03-14T16:12:06;7.13;;;1.93;;
20042;SDS011;10182;52.896;6.496;2023-03-14T16:17:10;9.47;;;2.47;;
20042;SDS011;10182;52.896;6.496;2023-03-14T16:22:12;8.10;;;1.50;;
20042;SDS011;10182;52.896;6.496;2023-03-14T16:27:14;9.67;;;1.67;;
20042;SDS011;10182;52.896;6.496;2023-03-14T16:32:17;11.63;;;2.20;;
20042;SDS011;10182;52.896;6.496;2023-03-14T16:37:19;8.37;;;1.90;;
20042;SDS011;10182;52.896;6.496;2023-03-14T16:42:29;9.33;;;2.03;;
20042;SDS011;10182;52.896;6.496;2023-03-14T16:47:32;11.43;;;2.50;;
20042;SDS011;10182;52.896;6.496;2023-03-14T16:52:34;6.53;;;2.17;;
20042;SDS011;10182;52.896;6.496;2023-03-14T16:57:38;7.30;;;2.47;;
20042;SDS011;10182;52.896;6.496;2023-03-14T17:02:41;11.73;;;2.67;;
20042;SDS011;10182;52.896;6.496;2023-03-14T17:07:43;14.70;;;3.90;;
20042;SDS011;10182;52.896;6.496;2023-03-14T17:12:45;8.93;;;2.80;;
20042;SDS011;10182;52.896;6.496;2023-03-14T17:17:51;19.73;;;2.63;;
20042;SDS011;10182;52.896;6.496;2023-03-14T17:22:54;5.40;;;2.97;;
20042;SDS011;10182;52.896;6.496;2023-03-14T17:27:56;11.57;;;3.10;;
20042;SDS011;10182;52.896;6.496;2023-03-14T17:32:59;11.43;;;2.40;;
20042;SDS011;10182;52.896;6.496;2023-03-14T17:38:00;6.90;;;1.97;;
20042;SDS011;10182;52.896;6.496;2023-03-14T17:43:06;7.23;;;2.03;;
20042;SDS011;10182;52.896;6.496;2023-03-14T17:48:09;7.97;;;2.57;;
20042;SDS011;10182;52.896;6.496;2023-03-14T17:53:12;7.87;;;1.83;;
20042;SDS011;10182;52.896;6.496;2023-03-14T17:58:14;9.77;;;2.10;;
20042;SDS011;10182;52.896;6.496;2023-03-14T18:03:18;11.77;;;1.80;;
20042;SDS011;10182;52.896;6.496;2023-03-14T18:08:22;7.60;;;1.63;;
20042;SDS011;10182;52.896;6.496;2023-03-14T18:13:24;7.53;;;2.37;;
20042;SDS011;10182;52.896;6.496;2023-03-14T18:18:27;9.73;;;1.80;;
20042;SDS011;10182;52.896;6.496;2023-03-14T18:23:33;6.47;;;2.07;;
20042;SDS011;10182;52.896;6.496;2023-03-14T18:28:35;5.77;;;2.93;;
20042;SDS011;10182;52.896;6.496;2023-03-14T18:33:38;22.77;;;9.60;;
20042;SDS011;10182;52.896;6.496;2023-03-14T18:38:41;11.10;;;4.63;;
20042;SDS011;10182;52.896;6.496;2023-03-14T18:43:45;14.07;;;4.47;;
20042;SDS011;10182;52.896;6.496;2023-03-14T18:48:48;10.63;;;3.30;;
20042;SDS011;10182;52.896;6.496;2023-03-14T18:53:56;7.20;;;3.17;;
20042;SDS011;10182;52.896;6.496;2023-03-14T18:58:58;5.00;;;2.43;;
20042;SDS011;10182;52.896;6.496;2023-03-14T19:04:03;6.90;;;2.80;;
20042;SDS011;10182;52.896;6.496;2023-03-14T19:09:06;8.30;;;2.90;;
20042;SDS011;10182;52.896;6.496;2023-03-14T19:14:11;9.90;;;2.27;;
20042;SDS011;10182;52.896;6.496;2023-03-14T19:19:16;8.20;;;2.87;;
20042;SDS011;10182;52.896;6.496;2023-03-14T19:24:18;8.03;;;3.20;;
20042;SDS011;10182;52.896;6.496;2023-03-14T19:29:22;6.10;;;2.20;;
20042;SDS011;10182;52.896;6.496;2023-03-14T19:34:25;5.70;;;2.43;;
20042;SDS011;10182;52.896;6.496;2023-03-14T19:39:31;5.97;;;1.93;;
20042;SDS011;10182;52.896;6.496;2023-03-14T19:44:32;8.17;;;2.70;;
20042;SDS011;10182;52.896;6.496;2023-03-14T19:49:36;9.93;;;3.20;;
20042;SDS011;10182;52.896;6.496;2023-03-14T19:54:37;6.47;;;2.23;;
20042;SDS011;10182;52.896;6.496;2023-03-14T19:59:41;12.37;;;3.97;;
20042;SDS011;10182;52.896;6.496;2023-03-14T20:04:44;14.73;;;4.47;;
20042;SDS011;10182;52.896;6.496;2023-03-14T20:09:46;9.03;;;3.30;;
20042;SDS011;10182;52.896;6.496;2023-03-14T20:14:50;13.17;;;3.77;;
20042;SDS011;10182;52.896;6.496;2023-03-14T20:19:53;6.20;;;2.47;;
20042;SDS011;10182;52.896;6.496;2023-03-14T20:24:55;12.33;;;3.30;;
20042;SDS011;10182;52.896;6.496;2023-03-14T20:29:57;11.10;;;2.70;;
20042;SDS011;10182;52.896;6.496;2023-03-14T20:35:02;12.50;;;3.30;;
20042;SDS011;10182;52.896;6.496;2023-03-14T20:40:05;13.07;;;3.33;;
20042;SDS011;10182;52.896;6.496;2023-03-14T20:45:08;13.43;;;2.77;;
20042;SDS011;10182;52.896;6.496;2023-03-14T20:50:12;9.90;;;2.40;;
20042;SDS011;10182;52.896;6.496;2023-03-14T20:55:14;11.73;;;2.63;;
20042;SDS011;10182;52.896;6.496;2023-03-14T21:00:15;10.77;;;3.30;;
20042;SDS011;10182;52.896;6.496;2023-03-14T21:05:20;15.17;;;3.17;;
20042;SDS011;10182;52.896;6.496;2023-03-14T21:10:24;9.63;;;2.57;;
20042;SDS011;10182;52.896;6.496;2023-03-14T21:15:27;13.20;;;2.53;;
20042;SDS011;10182;52.896;6.496;2023-03-14T21:20:34;8.73;;;2.57;;
20042;SDS011;10182;52.896;6.496;2023-03-14T21:25:38;12.90;;;2.17;;
20042;SDS011;10182;52.896;6.496;2023-03-14T21:30:40;12.03;;;2.37;;
20042;SDS011;10182;52.896;6.496;2023-03-14T21:35:43;4.73;;;1.90;;
20042;SDS011;10182;52.896;6.496;2023-03-14T21:40:48;7.70;;;2.07;;
20042;SDS011;10182;52.896;6.496;2023-03-14T21:45:56;5.90;;;2.03;;
20042;SDS011;10182;52.896;6.496;2023-03-14T21:51:00;6.67;;;1.73;;
20042;SDS011;10182;52.896;6.496;2023-03-14T21:56:04;8.23;;;2.03;;
20042;SDS011;10182;52.896;6.496;2023-03-14T22:01:10;6.67;;;1.90;;
20042;SDS011;10182;52.896;6.496;2023-03-14T22:06:15;10.27;;;2.83;;
20042;SDS011;10182;52.896;6.496;2023-03-14T22:11:18;6.17;;;2.83;;
20042;SDS011;10182;52.896;6.496;2023-03-14T22:16:20;8.57;;;2.50;;
20042;SDS011;10182;52.896;6.496;2023-03-14T22:21:24;7.47;;;2.10;;
20042;SDS011;10182;52.896;6.496;2023-03-14T22:26:29;8.83;;;2.43;;
20042;SDS011;10182;52.896;6.496;2023-03-14T22:31:34;7.63;;;2.47;;
20042;SDS011;10182;52.896;6.496;2023-03-14T22:36:37;12.07;;;2.10;;
20042;SDS011;10182;52.896;6.496;2023-03-14T22:41:39;10.33;;;2.40;;
20042;SDS011;10182;52.896;6.496;2023-03-14T22:46:42;9.23;;;2.23;;
20042;SDS011;10182;52.896;6.496;2023-03-14T22:51:46;9.40;;;2.43;;
20042;SDS011;10182;52.896;6.496;2023-03-14T22:56:48;11.17;;;2.90;;
20042;SDS011;10182;52.896;6.496;2023-03-14T23:01:49;9.07;;;2.50;;
20042;SDS011;10182;52.896;6.496;2023-03-14T23:06:56;11.77;;;2.50;;
20042;SDS011;10182;52.896;6.496;2023-03-14T23:12:03;10.23;;;2.73;;
20042;SDS011;10182;52.896;6.496;2023-03-14T23:17:08;12.63;;;3.03;;
20042;SDS011;10182;52.896;6.496;2023-03-14T23:22:11;8.60;;;2.50;;
20042;SDS011;10182;52.896;6.496;2023-03-14T23:27:13;8.87;;;2.20;;
20042;SDS011;10182;52.896;6.496;2023-03-14T23:32:16;6.73;;;2.20;;
20042;SDS011;10182;52.896;6.496;2023-03-14T23:37:22;7.07;;;2.53;;
20042;SDS011;10182;52.896;6.496;2023-03-14T23:42:25;9.73;;;1.97;;
20042;SDS011;10182;52.896;6.496;2023-03-14T23:47:27;9.33;;;2.20;;
20042;SDS011;10182;52.896;6.496;2023-03-14T23:52:30;6.33;;;2.23;;
20042;SDS011;10182;52.896;6.496;2023-03-14T23:57:32;6.70;;;2.40;;
